CZ-0133 weather

Křinec Airstrip
Křinec, Czech Republic

Public forecast

Using degrees Celsius for public forecast. Weather courtesy of forecast.io.

Closest aviation weather report (METAR) to Křinec Airstrip

Closest report is Čáslav Air Base, 21.3 nm (39.5 km) SSE. Retrieved 2019/12/06 15:00 UTC (20 minutes ago):

LKCV 061500Z 15012KT CAVOK M00/M03 Q1016 NOSIG RMK BLU BLU

Closest aviation forecast (TAF) to Křinec Airstrip

Closest forecast is Čáslav Air Base, 21.3 nm (39.5 km) SSE. Retrieved 2019/12/06 12:06 UTC (3 hours ago):

TAF LKCV 061100Z 0612/0712 16008KT CAVOK TEMPO 0612/0614 8000 SCT013 BECMG 0700/0702 21014KT BKN025 BECMG 0704/0706 24017G27KT TEMPO 0702/0712 6000 RA OVC014 PROB40 0702/0707 4000 RASN OVC010